Time;durP1;ratioP1;P1;durP2;ratioP2;P2;SDS_P1;SDS_P2;PMS_P1;PMS_P2;Temp;Humidity;BMP_temperature;BMP_pressure;BME280_temperature;BME280_humidity;BME280_pressure;Samples;Min_cycle;Max_cycle;Signal;HPM_P1;HPM_P2
2024/01/15 00:00:42;;;;;;;16.60;8.73;;;;;;;2.66;100.00;98741.19;5211061;28;20117;-75
2024/01/15 00:03:13;;;;;;;17.27;8.77;;;;;;;2.59;100.00;98746.63;5206514;28;20025;-76
2024/01/15 00:05:43;;;;;;;15.68;7.93;;;;;;;2.69;100.00;98742.84;5203202;28;20240;-76
2024/01/15 00:08:14;;;;;;;18.50;8.23;;;;;;;2.61;100.00;98749.97;5203824;28;20032;-75
2024/01/15 00:10:44;;;;;;;16.38;7.80;;;;;;;2.65;100.00;98747.25;5204702;28;20462;-75
2024/01/15 00:13:14;;;;;;;14.02;7.40;;;;;;;2.58;100.00;98734.63;5203172;28;20052;-76
2024/01/15 00:15:45;;;;;;;14.30;7.28;;;;;;;2.67;100.00;98744.63;5203036;28;20028;-75
2024/01/15 00:18:15;;;;;;;15.50;7.25;;;;;;;2.67;100.00;98731.75;5204346;28;20075;-76
2024/01/15 00:20:45;;;;;;;14.20;7.38;;;;;;;2.67;100.00;98739.47;5203793;28;20025;-76
2024/01/15 00:23:16;;;;;;;15.40;7.68;;;;;;;2.63;100.00;98732.72;5206669;28;20029;-74
2024/01/15 00:25:46;;;;;;;14.43;7.38;;;;;;;2.54;100.00;98738.19;5204942;28;20052;-76
2024/01/15 00:28:16;;;;;;;15.82;8.32;;;;;;;2.52;100.00;98735.66;5206608;28;20021;-75
2024/01/15 00:30:46;;;;;;;15.98;7.72;;;;;;;2.51;100.00;98736.56;5206455;28;20029;-75
2024/01/15 00:33:17;;;;;;;16.02;7.75;;;;;;;2.46;100.00;98740.16;5208237;28;20228;-75
2024/01/15 00:35:47;;;;;;;15.50;7.88;;;;;;;2.40;100.00;98730.06;5210026;28;20031;-75
2024/01/15 00:38:17;;;;;;;18.55;8.00;;;;;;;2.50;100.00;98723.72;5204648;28;20101;-75
2024/01/15 00:40:48;;;;;;;16.35;8.05;;;;;;;2.48;100.00;98725.53;5202245;28;20033;-75
2024/01/15 00:43:19;;;;;;;16.75;7.93;;;;;;;2.42;100.00;98733.44;5201806;28;20425;-75
2024/01/15 00:45:49;;;;;;;17.13;8.70;;;;;;;2.44;100.00;98736.81;5202027;28;20104;-75
2024/01/15 00:48:19;;;;;;;14.98;7.38;;;;;;;2.46;100.00;98735.88;5203181;28;20033;-75
2024/01/15 00:50:50;;;;;;;16.75;8.10;;;;;;;2.45;100.00;98728.19;5204738;28;20130;-75
2024/01/15 00:53:22;;;;;;;16.25;7.18;;;;;;;2.47;100.00;98736.72;5206308;28;20029;-76
2024/01/15 00:55:52;;;;;;;16.63;7.80;;;;;;;2.46;100.00;98729.84;5203672;28;20339;-76
2024/01/15 00:58:22;;;;;;;16.85;7.65;;;;;;;2.41;100.00;98721.44;5206431;28;20060;-76
2024/01/15 01:00:53;;;;;;;14.02;7.32;;;;;;;2.34;100.00;98722.53;5206951;28;20033;-76
2024/01/15 01:03:23;;;;;;;13.00;7.18;;;;;;;2.43;100.00;98717.06;5203334;28;20037;-76
2024/01/15 01:05:54;;;;;;;13.68;7.32;;;;;;;2.46;100.00;98719.53;5204723;28;20053;-76
2024/01/15 01:08:24;;;;;;;14.63;6.80;;;;;;;2.39;100.00;98720.66;5202320;28;20029;-76
2024/01/15 01:10:55;;;;;;;14.02;6.15;;;;;;;2.34;100.00;98719.97;5209890;28;20028;-75
2024/01/15 01:13:25;;;;;;;13.52;6.40;;;;;;;2.39;100.00;98718.94;5206426;28;20022;-76
2024/01/15 01:15:56;;;;;;;10.13;5.45;;;;;;;2.24;100.00;98723.72;5207998;28;20399;-75
2024/01/15 01:18:26;;;;;;;10.10;5.60;;;;;;;2.22;100.00;98715.22;5209431;28;20098;-75
2024/01/15 01:20:56;;;;;;;10.85;5.55;;;;;;;2.15;100.00;98722.28;5209631;28;20067;-75
2024/01/15 01:23:26;;;;;;;9.02;4.60;;;;;;;2.21;100.00;98723.81;5202990;28;20025;-74
2024/01/15 01:25:57;;;;;;;11.20;4.68;;;;;;;2.18;100.00;98724.75;5206331;28;20517;-76
2024/01/15 01:28:28;;;;;;;11.70;4.65;;;;;;;2.26;100.00;98730.53;5208903;28;20029;-75
2024/01/15 01:30:59;;;;;;;10.05;4.90;;;;;;;2.25;100.00;98738.28;5209447;28;20033;-75
2024/01/15 01:33:30;;;;;;;10.07;4.90;;;;;;;2.22;100.00;98723.78;5207704;28;20032;-75
2024/01/15 01:36:00;;;;;;;9.60;5.35;;;;;;;2.09;100.00;98716.47;5210897;28;20275;-76
2024/01/15 01:38:30;;;;;;;7.68;4.30;;;;;;;2.05;100.00;98718.34;5211264;28;20086;-76
2024/01/15 01:41:01;;;;;;;8.98;4.70;;;;;;;2.09;100.00;98719.91;5209739;28;20041;-75
2024/01/15 01:43:31;;;;;;;10.77;4.95;;;;;;;2.12;100.00;98719.81;5207874;28;20064;-75
2024/01/15 01:46:03;;;;;;;10.50;4.60;;;;;;;2.09;100.00;98724.22;5205593;28;20468;-76
2024/01/15 01:48:33;;;;;;;11.70;4.97;;;;;;;2.07;100.00;98720.84;5212454;28;20407;-75
2024/01/15 01:51:04;;;;;;;9.90;4.60;;;;;;;2.07;100.00;98716.56;5212685;28;20053;-76
2024/01/15 01:53:37;;;;;;;11.32;4.93;;;;;;;2.20;100.00;98717.00;5209054;28;20540;-76
2024/01/15 01:56:09;;;;;;;9.30;4.50;;;;;;;2.14;100.00;98715.44;5211706;28;20462;-76
2024/01/15 01:58:39;;;;;;;8.50;4.63;;;;;;;2.17;100.00;98699.06;5210648;28;20036;-76
2024/01/15 02:01:11;;;;;;;10.68;4.63;;;;;;;2.18;100.00;98718.78;5211196;28;20026;-74
2024/01/15 02:03:43;;;;;;;9.27;4.47;;;;;;;2.17;100.00;98711.94;5210232;28;20030;-76
2024/01/15 02:06:13;;;;;;;11.25;5.07;;;;;;;2.17;100.00;98711.94;5208831;28;20040;-76
2024/01/15 02:08:43;;;;;;;10.15;4.63;;;;;;;2.08;100.00;98713.06;5211213;28;20048;-76
2024/01/15 02:11:14;;;;;;;9.85;4.57;;;;;;;2.22;100.00;98700.59;5210728;28;20041;-76
2024/01/15 02:13:44;;;;;;;10.98;4.40;;;;;;;2.30;100.00;98705.50;5189419;28;20406;-76
2024/01/15 02:16:15;;;;;;;9.25;3.88;;;;;;;2.23;100.00;98696.28;5213313;28;20553;-76
2024/01/15 02:18:46;;;;;;;8.85;4.15;;;;;;;2.25;100.00;98700.50;5211697;28;20033;-75
2024/01/15 02:21:16;;;;;;;11.25;4.22;;;;;;;2.28;100.00;98697.81;5208816;28;20180;-76
2024/01/15 02:23:47;;;;;;;8.55;3.97;;;;;;;2.25;100.00;98687.63;5212281;28;20069;-76
2024/01/15 02:26:17;;;;;;;11.25;3.85;;;;;;;2.25;100.00;98686.75;5210387;28;20247;-76
2024/01/15 02:28:48;;;;;;;13.30;3.97;;;;;;;2.24;100.00;98680.78;5211810;28;20559;-76
2024/01/15 02:31:19;;;;;;;9.27;2.97;;;;;;;2.26;100.00;98675.56;5207584;28;20037;-76
2024/01/15 02:33:49;;;;;;;10.73;3.35;;;;;;;2.29;100.00;98673.72;5209134;28;20017;-76
2024/01/15 02:36:19;;;;;;;7.50;3.00;;;;;;;2.24;100.00;98667.03;5209726;28;20505;-76
2024/01/15 02:38:50;;;;;;;8.68;3.08;;;;;;;2.31;100.00;98669.38;5209770;28;20036;-75
2024/01/15 02:41:20;;;;;;;10.35;2.72;;;;;;;2.36;100.00;98656.34;5210477;28;20414;-76
2024/01/15 02:43:50;;;;;;;11.30;3.08;;;;;;;2.48;100.00;98663.66;5212293;28;20032;-76
2024/01/15 02:46:20;;;;;;;14.35;3.30;;;;;;;2.44;100.00;98662.06;5205627;28;20099;-76
2024/01/15 02:48:51;;;;;;;10.15;3.10;;;;;;;2.50;100.00;98656.72;5191680;28;20060;-76
2024/01/15 02:51:21;;;;;;;15.10;3.00;;;;;;;2.48;100.00;98649.03;5209707;28;20628;-75
2024/01/15 02:53:51;;;;;;;11.93;2.75;;;;;;;2.57;100.00;98650.44;5211878;28;20037;-75
2024/01/15 02:56:22;;;;;;;11.23;3.22;;;;;;;2.48;100.00;98636.13;5207081;28;20535;-75
2024/01/15 02:58:52;;;;;;;10.45;2.53;;;;;;;2.57;100.00;98646.16;5211389;28;20056;-76
2024/01/15 03:01:22;;;;;;;13.38;2.63;;;;;;;2.53;99.78;98647.13;5209371;28;20103;-73
2024/01/15 03:03:55;;;;;;;15.75;2.67;;;;;;;2.59;99.62;98646.06;5208299;28;20111;-74
2024/01/15 03:06:25;;;;;;;10.85;2.30;;;;;;;2.66;99.10;98645.81;5206767;28;20321;-73
2024/01/15 03:08:55;;;;;;;12.38;3.55;;;;;;;2.63;99.37;98650.22;5211688;28;20037;-73
2024/01/15 03:11:26;;;;;;;7.80;2.05;;;;;;;2.57;99.76;98641.00;5209732;28;20162;-73
2024/01/15 03:13:56;;;;;;;9.98;2.25;;;;;;;2.59;99.25;98635.75;5209767;28;20506;-73
2024/01/15 03:16:26;;;;;;;9.65;1.65;;;;;;;2.63;98.88;98634.75;5211354;28;20037;-72
2024/01/15 03:18:56;;;;;;;11.80;2.30;;;;;;;2.65;98.43;98633.81;5217091;28;20092;-73
2024/01/15 03:21:27;;;;;;;9.60;2.40;;;;;;;2.65;98.05;98638.97;5213521;28;20031;-73
2024/01/15 03:23:57;;;;;;;6.65;1.88;;;;;;;2.73;98.40;98638.72;5210786;28;20041;-74
2024/01/15 03:26:27;;;;;;;9.63;2.30;;;;;;;2.65;98.37;98630.41;5205373;28;20145;-73
2024/01/15 03:28:58;;;;;;;10.15;2.08;;;;;;;2.74;98.60;98632.66;5211419;28;20029;-73
2024/01/15 03:31:28;;;;;;;8.75;2.10;;;;;;;2.74;97.83;98635.22;5213772;28;20133;-73
2024/01/15 03:33:58;;;;;;;13.05;2.35;;;;;;;2.74;98.28;98640.38;5211210;28;20398;-73
2024/01/15 03:36:29;;;;;;;9.57;2.05;;;;;;;2.66;98.43;98630.34;5212856;28;20063;-73
2024/01/15 03:38:59;;;;;;;7.78;2.10;;;;;;;2.73;98.32;98631.81;5211779;28;20037;-73
2024/01/15 03:41:29;;;;;;;5.32;1.60;;;;;;;2.73;98.54;98630.97;5217005;28;20055;-73
2024/01/15 03:44:00;;;;;;;10.15;2.25;;;;;;;2.64;98.85;98639.88;5213893;28;20062;-73
2024/01/15 03:46:30;;;;;;;6.97;2.28;;;;;;;2.65;98.89;98631.25;5214035;28;20523;-73
2024/01/15 03:49:00;;;;;;;13.48;1.88;;;;;;;2.65;99.15;98623.50;5214520;28;20047;-74
2024/01/15 03:51:31;;;;;;;7.82;2.10;;;;;;;2.72;98.43;98629.28;5217684;28;20032;-73
2024/01/15 03:54:01;;;;;;;5.70;1.83;;;;;;;2.82;98.37;98628.09;5215521;28;20060;-73
2024/01/15 03:56:31;;;;;;;9.85;1.48;;;;;;;2.76;98.82;98633.44;5213473;28;20032;-73
2024/01/15 03:59:01;;;;;;;11.82;2.30;;;;;;;2.73;97.90;98642.16;5215754;28;20108;-73
2024/01/15 04:01:32;;;;;;;10.63;1.80;;;;;;;2.84;97.97;98629.69;5212924;28;20021;-73
2024/01/15 04:04:02;;;;;;;6.68;1.73;;;;;;;2.70;98.61;98625.94;5213706;28;20025;-73
2024/01/15 04:06:32;;;;;;;6.93;1.50;;;;;;;2.66;98.75;98632.91;5214611;28;20070;-72
2024/01/15 04:09:03;;;;;;;10.02;1.67;;;;;;;2.68;99.30;98633.72;5215848;28;20048;-73
2024/01/15 04:11:33;;;;;;;12.43;1.60;;;;;;;2.65;99.64;98638.16;5213023;28;20103;-72
2024/01/15 04:14:03;;;;;;;10.07;1.60;;;;;;;2.66;100.00;98639.84;5213999;28;20033;-73
2024/01/15 04:16:34;;;;;;;8.25;1.77;;;;;;;2.63;100.00;98629.59;5217501;28;20422;-73
2024/01/15 04:19:04;;;;;;;8.65;1.52;;;;;;;2.60;100.00;98637.44;5213980;28;20028;-73
2024/01/15 04:21:35;;;;;;;11.15;1.75;;;;;;;2.59;100.00;98638.34;5214825;28;20394;-73
2024/01/15 04:24:05;;;;;;;14.30;2.25;;;;;;;2.67;100.00;98637.19;5215081;28;20113;-73
2024/01/15 04:26:35;;;;;;;9.68;1.65;;;;;;;2.57;100.00;98645.28;5216053;28;20478;-73
2024/01/15 04:29:06;;;;;;;8.15;1.58;;;;;;;2.47;100.00;98639.63;5209636;28;20067;-73
2024/01/15 04:31:36;;;;;;;11.00;1.85;;;;;;;2.49;100.00;98642.16;5207504;28;20038;-73
2024/01/15 04:34:06;;;;;;;13.20;2.15;;;;;;;2.62;100.00;98633.06;5215249;28;20375;-73
2024/01/15 04:36:41;;;;;;;9.05;2.10;;;;;;;2.52;100.00;98631.72;5212856;28;20071;-73
2024/01/15 04:39:11;;;;;;;10.90;2.30;;;;;;;2.48;100.00;98630.16;5212855;28;20037;-73
2024/01/15 04:41:41;;;;;;;7.18;1.52;;;;;;;2.55;100.00;98634.19;5214693;28;20320;-73
2024/01/15 04:44:12;;;;;;;10.50;1.77;;;;;;;2.61;100.00;98631.41;5215073;28;20030;-73
2024/01/15 04:46:43;;;;;;;10.23;1.65;;;;;;;2.56;100.00;98635.88;5215940;28;20437;-73
2024/01/15 04:49:14;;;;;;;12.52;2.08;;;;;;;2.55;100.00;98629.03;5215018;28;20029;-73
2024/01/15 04:51:44;;;;;;;7.45;1.55;;;;;;;2.61;100.00;98628.81;5211710;28;20025;-73
2024/01/15 04:54:18;;;;;;;12.27;1.63;;;;;;;2.70;100.00;98643.97;5212128;28;20041;-72
2024/01/15 04:56:48;;;;;;;12.52;1.58;;;;;;;2.63;100.00;98637.34;5212334;28;20048;-73
2024/01/15 04:59:18;;;;;;;4.68;1.30;;;;;;;2.61;100.00;98642.56;5214065;28;20036;-73
2024/01/15 05:01:48;;;;;;;4.22;1.30;;;;;;;2.63;100.00;98632.19;5214638;28;20163;-73
2024/01/15 05:04:19;;;;;;;9.00;1.40;;;;;;;2.68;100.00;98638.03;5213173;28;20028;-72
2024/01/15 05:06:49;;;;;;;10.65;2.30;;;;;;;2.66;100.00;98639.84;5213013;28;20453;-73
2024/01/15 05:09:19;;;;;;;7.57;2.00;;;;;;;2.62;100.00;98643.38;5212223;28;20086;-70
2024/01/15 05:11:49;;;;;;;12.50;2.45;;;;;;;2.52;100.00;98636.88;5213635;28;20033;-73
2024/01/15 05:14:20;;;;;;;10.13;1.88;;;;;;;2.71;100.00;98633.59;5212838;28;20057;-72
2024/01/15 05:16:50;;;;;;;14.07;2.85;;;;;;;2.66;100.00;98624.38;5215884;28;20063;-73
2024/01/15 05:19:20;;;;;;;8.90;2.47;;;;;;;2.71;100.00;98623.28;5215058;28;20112;-72
2024/01/15 05:21:51;;;;;;;12.73;3.13;;;;;;;2.62;100.00;98628.78;5211070;28;20060;-73
2024/01/15 05:24:21;;;;;;;14.23;2.13;;;;;;;2.62;100.00;98644.25;5213113;28;20457;-72
2024/01/15 05:26:52;;;;;;;10.25;2.00;;;;;;;2.53;100.00;98647.13;5210906;28;20033;-73
2024/01/15 05:29:22;;;;;;;11.70;2.08;;;;;;;2.46;100.00;98647.38;5213642;28;20029;-72
2024/01/15 05:31:52;;;;;;;11.18;2.08;;;;;;;2.47;100.00;98643.94;5212699;28;20370;-73
2024/01/15 05:34:22;;;;;;;9.40;1.65;;;;;;;2.38;100.00;98639.09;5214097;28;20013;-72
2024/01/15 05:36:53;;;;;;;9.07;2.35;;;;;;;2.22;100.00;98636.19;5213701;28;20032;-73
2024/01/15 05:39:23;;;;;;;8.13;1.70;;;;;;;2.20;100.00;98634.56;5213017;28;20025;-73
2024/01/15 05:41:53;;;;;;;11.25;1.73;;;;;;;2.29;100.00;98637.66;5214500;28;20033;-73
2024/01/15 05:44:24;;;;;;;12.48;2.17;;;;;;;2.24;100.00;98636.13;5212012;28;20086;-72
2024/01/15 05:46:54;;;;;;;8.68;2.22;;;;;;;2.31;100.00;98627.31;5214636;28;20036;-73
2024/01/15 05:49:24;;;;;;;7.07;1.70;;;;;;;2.25;100.00;98617.19;5213871;28;20304;-73
2024/01/15 05:51:55;;;;;;;12.60;1.55;;;;;;;2.32;100.00;98624.66;5214516;28;20569;-73
2024/01/15 05:54:25;;;;;;;7.32;1.70;;;;;;;2.39;100.00;98623.59;5214823;28;20093;-73
2024/01/15 05:56:55;;;;;;;6.85;1.75;;;;;;;2.37;100.00;98624.53;5212597;28;20112;-73
2024/01/15 05:59:26;;;;;;;5.82;1.98;;;;;;;2.47;100.00;98618.16;5214237;28;20032;-72
2024/01/15 06:01:57;;;;;;;12.82;1.55;;;;;;;2.43;100.00;98619.16;5211179;28;20037;-73
2024/01/15 06:04:27;;;;;;;8.05;1.70;;;;;;;2.42;100.00;98622.63;5213915;28;20098;-73
2024/01/15 06:06:57;;;;;;;6.47;1.75;;;;;;;2.43;100.00;98625.16;5208867;28;20116;-73
2024/01/15 06:09:28;;;;;;;12.48;2.08;;;;;;;2.38;100.00;98618.47;5210190;28;20503;-73
2024/01/15 06:11:59;;;;;;;10.50;1.98;;;;;;;2.34;100.00;98620.31;5212735;28;20516;-73
2024/01/15 06:14:29;;;;;;;10.38;1.80;;;;;;;2.29;100.00;98618.78;5211036;28;20030;-73
2024/01/15 06:16:59;;;;;;;13.48;2.50;;;;;;;2.39;100.00;98623.59;5214490;28;20063;-73
2024/01/15 06:19:29;;;;;;;8.80;2.25;;;;;;;2.38;100.00;98618.47;5214456;28;20033;-73
2024/01/15 06:22:00;;;;;;;11.40;2.10;;;;;;;2.39;100.00;98620.16;5210714;28;20446;-73
2024/01/15 06:24:30;;;;;;;9.23;2.03;;;;;;;2.38;100.00;98623.63;5210206;28;20225;-73
2024/01/15 06:27:00;;;;;;;7.32;2.28;;;;;;;2.44;100.00;98625.97;5212780;28;20057;-73
2024/01/15 06:29:31;;;;;;;15.43;1.90;;;;;;;2.47;100.00;98624.16;5213702;28;20025;-73
2024/01/15 06:32:02;;;;;;;6.45;1.77;;;;;;;2.48;100.00;98623.25;5211213;28;20440;-72
2024/01/15 06:34:32;;;;;;;10.32;1.67;;;;;;;2.54;100.00;98637.66;5213562;28;20025;-73
2024/01/15 06:37:03;;;;;;;13.00;2.95;;;;;;;2.48;100.00;98630.16;5210428;28;20300;-73
2024/01/15 06:39:33;;;;;;;6.03;2.08;;;;;;;2.39;100.00;98630.47;5212630;28;20478;-72
2024/01/15 06:42:03;;;;;;;9.35;2.17;;;;;;;2.46;100.00;98637.94;5213790;28;20032;-73
2024/01/15 06:44:34;;;;;;;9.20;2.13;;;;;;;2.33;100.00;98626.34;5213973;28;20139;-73
2024/01/15 06:47:05;;;;;;;7.95;2.22;;;;;;;2.30;100.00;98625.63;5211496;28;20033;-73
2024/01/15 06:49:35;;;;;;;11.70;3.20;;;;;;;2.28;100.00;98622.25;5214131;28;20051;-73
2024/01/15 06:52:06;;;;;;;11.75;2.72;;;;;;;2.28;100.00;98625.69;5210164;28;20482;-73
2024/01/15 06:54:36;;;;;;;13.15;3.60;;;;;;;2.33;100.00;98630.69;5209456;28;20024;-73
2024/01/15 06:57:07;;;;;;;8.48;2.30;;;;;;;2.43;100.00;98630.31;5210652;28;20028;-73
2024/01/15 06:59:37;;;;;;;9.43;2.88;;;;;;;2.42;100.00;98622.63;5213333;28;20366;-73
2024/01/15 07:02:07;;;;;;;8.27;2.20;;;;;;;2.34;100.00;98627.22;5206714;28;20038;-73
2024/01/15 07:04:38;;;;;;;10.25;2.83;;;;;;;2.34;100.00;98627.22;5207128;28;20021;-73
2024/01/15 07:07:08;;;;;;;8.48;2.53;;;;;;;2.21;100.00;98637.09;5207418;28;20033;-73
2024/01/15 07:09:39;;;;;;;12.35;2.33;;;;;;;2.11;100.00;98634.84;5207078;28;20033;-73
2024/01/15 07:12:09;;;;;;;9.70;1.98;;;;;;;2.17;100.00;98635.50;5207108;28;20510;-73
2024/01/15 07:14:39;;;;;;;7.63;1.80;;;;;;;2.18;100.00;98641.50;5207513;28;20160;-73
2024/01/15 07:17:09;;;;;;;7.72;2.10;;;;;;;2.13;100.00;98636.50;5207675;28;20061;-73
2024/01/15 07:19:40;;;;;;;7.05;2.38;;;;;;;2.24;100.00;98638.69;5199785;28;20033;-73
2024/01/15 07:22:10;;;;;;;10.50;1.88;;;;;;;2.15;100.00;98642.44;5202240;28;20516;-73
2024/01/15 07:24:40;;;;;;;10.32;2.10;;;;;;;2.14;100.00;98648.47;5206483;28;20136;-73
2024/01/15 07:27:11;;;;;;;7.57;2.03;;;;;;;2.20;100.00;98650.00;5208116;28;20482;-73
2024/01/15 07:29:42;;;;;;;6.47;1.95;;;;;;;2.34;100.00;98645.25;5205393;28;20044;-73
2024/01/15 07:32:12;;;;;;;6.22;2.03;;;;;;;2.33;100.00;98661.59;5204634;28;20056;-73
2024/01/15 07:34:43;;;;;;;7.13;2.40;;;;;;;2.31;100.00;98664.22;5205100;28;20022;-73
2024/01/15 07:37:13;;;;;;;7.25;2.13;;;;;;;2.35;100.00;98668.38;5208671;28;20025;-73
2024/01/15 07:39:43;;;;;;;8.25;2.25;;;;;;;2.27;100.00;98677.25;5207075;28;20017;-73
2024/01/15 07:42:14;;;;;;;10.18;2.15;;;;;;;2.26;100.00;98668.69;5207687;28;20044;-73
2024/01/15 07:44:44;;;;;;;11.00;2.08;;;;;;;2.25;100.00;98664.44;5205163;28;20029;-73
2024/01/15 07:47:15;;;;;;;9.45;2.13;;;;;;;2.17;100.00;98668.97;5207640;28;20454;-73
2024/01/15 07:49:45;;;;;;;8.57;2.60;;;;;;;2.25;100.00;98661.00;5207084;28;20029;-74
2024/01/15 07:52:16;;;;;;;14.48;4.22;;;;;;;2.22;100.00;98658.53;5204650;28;20518;-73
2024/01/15 07:54:46;;;;;;;14.70;2.47;;;;;;;2.21;100.00;98654.28;5206236;28;20108;-73
2024/01/15 07:57:16;;;;;;;11.68;2.40;;;;;;;2.27;100.00;98666.94;5206749;28;20021;-73
2024/01/15 07:59:46;;;;;;;8.93;2.50;;;;;;;2.24;100.00;98661.91;5207450;28;20116;-73
2024/01/15 08:02:17;;;;;;;10.00;2.08;;;;;;;2.26;100.00;98667.84;5211542;28;20029;-73
2024/01/15 08:04:47;;;;;;;7.75;2.35;;;;;;;2.31;100.00;98659.06;5210963;28;20035;-73
2024/01/15 08:07:18;;;;;;;8.27;2.53;;;;;;;2.38;100.00;98670.00;5211763;28;20503;-73
2024/01/15 08:09:48;;;;;;;12.70;2.25;;;;;;;2.40;100.00;98673.38;5208142;28;20087;-73
2024/01/15 08:12:19;;;;;;;12.75;2.53;;;;;;;2.46;100.00;98668.00;5212450;28;20131;-73
2024/01/15 08:14:49;;;;;;;9.80;2.28;;;;;;;2.43;100.00;98674.13;5202498;28;20029;-73
2024/01/15 08:17:19;;;;;;;7.18;1.88;;;;;;;2.40;100.00;98674.22;5211865;28;20021;-73
2024/01/15 08:19:50;;;;;;;12.02;2.45;;;;;;;2.35;100.00;98675.28;5210079;28;20033;-73
2024/01/15 08:22:20;;;;;;;5.18;1.88;;;;;;;2.42;100.00;98671.59;5212830;28;20056;-73
2024/01/15 08:24:51;;;;;;;8.93;2.15;;;;;;;2.48;100.00;98671.41;5207982;28;20034;-73
2024/01/15 08:27:21;;;;;;;7.90;2.13;;;;;;;2.42;100.00;98676.75;5212796;28;20029;-73
2024/01/15 08:29:51;;;;;;;10.07;2.03;;;;;;;2.42;100.00;98682.75;5209985;28;20037;-73
2024/01/15 08:32:22;;;;;;;8.38;2.63;;;;;;;2.39;100.00;98676.84;5212433;28;20421;-73
2024/01/15 08:34:52;;;;;;;6.00;2.10;;;;;;;2.37;100.00;98671.72;5212481;28;20640;-73
2024/01/15 08:37:22;;;;;;;9.20;2.63;;;;;;;2.45;100.00;98677.50;5215109;28;20028;-73
2024/01/15 08:39:52;;;;;;;8.50;2.03;;;;;;;2.37;100.00;98673.47;5206892;28;20029;-73
2024/01/15 08:42:23;;;;;;;6.60;2.00;;;;;;;2.39;100.00;98671.69;5218048;28;20025;-73
2024/01/15 08:44:53;;;;;;;9.85;2.08;;;;;;;2.46;100.00;98679.16;5211506;28;20063;-73
2024/01/15 08:47:24;;;;;;;7.15;1.92;;;;;;;2.34;100.00;98678.75;5208558;28;20326;-73
2024/01/15 08:49:55;;;;;;;6.03;2.17;;;;;;;2.37;100.00;98684.63;5207081;28;20103;-73
2024/01/15 08:52:25;;;;;;;4.45;2.10;;;;;;;2.42;100.00;98672.44;5215903;28;20037;-73
2024/01/15 08:54:56;;;;;;;6.80;2.17;;;;;;;2.46;100.00;98673.16;5210499;28;20307;-73
2024/01/15 08:57:27;;;;;;;8.88;2.30;;;;;;;2.51;100.00;98684.19;5215755;28;20048;-73
2024/01/15 08:59:58;;;;;;;9.27;3.05;;;;;;;2.48;100.00;98682.53;5211481;28;20025;-73
2024/01/15 09:02:28;;;;;;;11.52;4.13;;;;;;;2.49;100.00;98679.06;5213763;28;20028;-73
2024/01/15 09:04:59;;;;;;;12.05;4.00;;;;;;;2.32;100.00;98670.22;5211806;28;20183;-73
2024/01/15 09:07:29;;;;;;;14.30;4.05;;;;;;;2.31;100.00;98673.69;5216122;28;20025;-73
2024/01/15 09:09:59;;;;;;;9.60;3.58;;;;;;;2.29;100.00;98689.19;5210072;28;20112;-73
2024/01/15 09:12:30;;;;;;;9.00;2.65;;;;;;;2.37;100.00;98687.19;5203859;28;20036;-73
2024/01/15 09:15:00;;;;;;;7.03;2.22;;;;;;;2.35;100.00;98685.56;5209702;28;20080;-73
2024/01/15 09:17:31;;;;;;;11.38;3.83;;;;;;;2.29;100.00;98685.75;5208269;28;20035;-73
2024/01/15 09:20:04;;;;;;;7.75;2.13;;;;;;;2.26;100.00;98693.59;5209801;28;20444;-73
2024/01/15 09:22:34;;;;;;;3.78;1.67;;;;;;;2.18;100.00;98693.00;5213057;28;20028;-73
2024/01/15 09:25:05;;;;;;;10.80;2.50;;;;;;;2.23;100.00;98694.56;5212150;28;20420;-73
2024/01/15 09:27:36;;;;;;;6.82;2.05;;;;;;;2.26;100.00;98696.16;5213015;28;20024;-73
2024/01/15 09:30:07;;;;;;;8.63;1.90;;;;;;;2.51;100.00;98692.72;5208166;28;20108;-73
2024/01/15 09:32:37;;;;;;;5.55;1.77;;;;;;;2.62;100.00;98694.94;5214369;28;20017;-73
2024/01/15 09:35:08;;;;;;;7.22;2.00;;;;;;;2.59;100.00;98703.66;5212342;28;20445;-74
2024/01/15 09:37:39;;;;;;;5.88;1.85;;;;;;;2.69;100.00;98706.75;5212182;28;20059;-74
2024/01/15 09:40:15;;;;;;;8.10;1.58;;;;;;;2.62;100.00;98706.13;5210720;28;20060;-73
2024/01/15 09:42:47;;;;;;;4.95;1.20;;;;;;;2.62;100.00;98707.84;5213235;28;20095;-73
2024/01/15 09:45:18;;;;;;;7.93;1.95;;;;;;;2.56;100.00;98702.91;5214458;28;20167;-74
2024/01/15 09:47:48;;;;;;;6.63;1.48;;;;;;;2.65;100.00;98707.75;5209870;28;20086;-74
2024/01/15 09:50:20;;;;;;;9.20;1.85;;;;;;;2.71;100.00;98723.00;5177240;28;1061455;-74
2024/01/15 09:52:51;;;;;;;5.28;1.65;;;;;;;2.72;100.00;98719.53;5211723;28;20525;-73
2024/01/15 09:55:22;;;;;;;6.55;1.42;;;;;;;2.74;100.00;98721.19;5210515;28;20107;-74
2024/01/15 09:57:55;;;;;;;7.72;1.90;;;;;;;2.73;100.00;98713.47;5212277;28;20037;-73
2024/01/15 10:00:27;;;;;;;7.75;1.88;;;;;;;2.69;100.00;98709.31;5216402;28;20021;-73
2024/01/15 10:02:59;;;;;;;6.82;2.20;;;;;;;2.73;100.00;98710.91;5212789;28;20029;-73
2024/01/15 10:05:29;;;;;;;10.15;2.72;;;;;;;2.77;100.00;98715.06;5213752;28;20033;-73
2024/01/15 10:08:01;;;;;;;9.63;1.95;;;;;;;2.84;100.00;98703.66;5199941;28;20029;-73
2024/01/15 10:10:31;;;;;;;5.93;1.33;;;;;;;2.76;100.00;98710.78;5213143;28;20055;-74
2024/01/15 10:13:04;;;;;;;5.70;1.50;;;;;;;2.89;100.00;98696.59;5212099;28;20057;-73
2024/01/15 10:15:36;;;;;;;5.80;1.60;;;;;;;3.01;100.00;98702.16;5211665;28;20393;-73
2024/01/15 10:18:07;;;;;;;4.75;1.17;;;;;;;3.03;100.00;98700.34;5211950;28;20021;-73
2024/01/15 10:20:37;;;;;;;9.90;1.83;;;;;;;3.07;100.00;98698.50;5214557;28;20390;-72
2024/01/15 10:23:07;;;;;;;8.35;1.50;;;;;;;2.99;100.00;98700.53;5209116;28;20065;-73
2024/01/15 10:25:38;;;;;;;8.45;1.60;;;;;;;3.09;100.00;98700.16;5214284;28;20115;-73
2024/01/15 10:28:09;;;;;;;7.22;1.60;;;;;;;3.07;100.00;98704.53;5212760;28;20048;-74
2024/01/15 10:30:40;;;;;;;6.80;1.45;;;;;;;3.19;100.00;98708.41;5210456;28;20286;-73
2024/01/15 10:33:11;;;;;;;9.18;1.73;;;;;;;3.06;100.00;98718.28;5203024;28;20137;-73
2024/01/15 10:35:41;;;;;;;7.03;1.60;;;;;;;3.08;100.00;98721.69;5207340;28;20519;-73
2024/01/15 10:38:12;;;;;;;8.32;1.83;;;;;;;3.26;100.00;98715.00;5210350;28;20021;-73
2024/01/15 10:40:42;;;;;;;9.20;1.85;;;;;;;3.21;100.00;98715.16;5208780;28;20061;-75
2024/01/15 10:43:13;;;;;;;10.20;1.98;;;;;;;3.31;100.00;98707.94;5209982;28;20394;-75
2024/01/15 10:45:45;;;;;;;5.93;1.55;;;;;;;3.14;100.00;98702.53;5211863;28;20033;-75
2024/01/15 10:48:19;;;;;;;9.07;1.40;;;;;;;3.27;100.00;98711.53;5210853;28;20035;-75
2024/01/15 10:50:49;;;;;;;6.72;1.73;;;;;;;3.18;100.00;98711.88;5208520;28;20506;-75
2024/01/15 10:53:21;;;;;;;12.15;2.17;;;;;;;3.13;100.00;98713.75;5209446;28;20029;-74
2024/01/15 10:55:52;;;;;;;8.40;1.35;;;;;;;3.15;100.00;98707.66;5211527;28;20052;-73
2024/01/15 10:58:23;;;;;;;5.90;1.15;;;;;;;3.23;100.00;98700.47;5213256;28;20016;-73
2024/01/15 11:00:53;;;;;;;7.50;1.13;;;;;;;3.22;100.00;98708.28;5207594;28;20043;-74
2024/01/15 11:03:24;;;;;;;9.40;1.52;;;;;;;3.24;100.00;98706.50;5207824;28;20033;-73
2024/01/15 11:05:54;;;;;;;5.63;1.42;;;;;;;3.19;100.00;98711.81;5202517;28;20030;-73
2024/01/15 11:08:25;;;;;;;3.88;0.93;;;;;;;3.12;100.00;98701.75;5212403;28;20385;-73
2024/01/15 11:10:55;;;;;;;7.22;1.30;;;;;;;3.18;100.00;98711.88;5207432;28;20037;-73
2024/01/15 11:13:31;;;;;;;3.13;0.70;;;;;;;2.96;100.00;98703.19;5211954;28;20051;-73
2024/01/15 11:16:07;;;;;;;7.22;1.20;;;;;;;2.99;100.00;98721.16;5204262;28;20437;-73
2024/01/15 11:18:37;;;;;;;;;;;;;;;3.02;100.00;98715.91;5207573;28;20595;-74
2024/01/15 11:21:14;;;;;;;3.43;0.80;;;;;;;2.91;100.00;98712.84;5208120;28;19917;-73
2024/01/15 11:23:49;;;;;;;4.30;0.90;;;;;;;2.83;100.00;98715.69;5208117;28;20333;-73
2024/01/15 11:26:43;;;;;;;7.18;1.10;;;;;;;2.70;100.00;98721.31;5212011;28;20033;-73
2024/01/15 11:29:28;;;;;;;3.13;0.88;;;;;;;2.73;100.00;98718.63;5209717;28;20215;-73
2024/01/15 11:32:04;;;;;;;2.72;0.88;;;;;;;2.74;100.00;98717.75;5208906;28;20028;-73
2024/01/15 11:34:50;;;;;;;8.48;1.33;;;;;;;2.85;100.00;98708.72;5207666;28;20700;-73
2024/01/15 11:37:23;;;;;;;6.35;1.45;;;;;;;2.94;100.00;98707.56;5215798;28;20032;-73
2024/01/15 11:39:55;;;;;;;5.53;1.55;;;;;;;3.07;100.00;98694.22;5214600;28;20040;-73
2024/01/15 11:42:27;;;;;;;8.05;1.48;;;;;;;3.27;100.00;98689.16;5212752;28;20025;-73
2024/01/15 11:44:57;;;;;;;5.85;1.35;;;;;;;3.26;100.00;98699.53;5214393;28;20041;-73
2024/01/15 11:48:10;;;;;;;5.97;1.20;;;;;;;3.31;100.00;98680.41;5217141;28;20478;-73